Time;durP1;ratioP1;P1;durP2;ratioP2;P2;SDS_P1;SDS_P2;PMS_P1;PMS_P2;Temp;Humidity;BMP_temperature;BMP_pressure;BME280_temperature;BME280_humidity;BME280_pressure;Samples;Min_cycle;Max_cycle;Signal;HPM_P1;HPM_P2
2020/12/30 00:00:47;;;;;;;;;;;;;;;;;;5023371;28;19933;-65
2020/12/30 00:03:14;;;;;;;;;;;;;;;;;;5022926;28;20288;-66
2020/12/30 00:05:41;;;;;;;;;;;;;;;;;;5023950;28;19943;-65
2020/12/30 00:08:08;;;;;;;;;;;;;;;;;;5024850;28;19983;-65
2020/12/30 00:10:35;;;;;;;;;;;;;;;;;;5022831;28;19929;-65
2020/12/30 00:13:03;;;;;;;;;;;;;;;;;;5016795;28;20432;-65
2020/12/30 00:15:30;;;;;;;;;;;;;;;;;;5021944;28;20286;-65
2020/12/30 00:17:57;;;;;;;;;;;;;;;;;;5022958;28;19933;-66
2020/12/30 00:20:24;;;;;;;;;;;;;;;;;;5021406;28;20388;-66
2020/12/30 00:22:52;;;;;;;;;;;;;;;;;;5022051;28;19925;-65
2020/12/30 00:25:19;;;;;;;;;;;;;;;;;;5022663;28;20344;-65
2020/12/30 00:27:46;;;;;;;;;;;;;;;;;;5022967;28;19929;-65
2020/12/30 00:30:13;;;;;;;;;;;;;;;;;;5020449;28;19936;-66
2020/12/30 00:32:41;;;;;;;;;;;;;;;;;;5021614;28;19929;-65
2020/12/30 00:35:08;;;;;;;;;;;;;;;;;;5023555;28;19933;-66
2020/12/30 00:37:35;;;;;;;;;;;;;;;;;;5023827;28;19941;-66
2020/12/30 00:40:02;;;;;;;;;;;;;;;;;;5024039;28;19936;-66
2020/12/30 00:42:29;;;;;;;;;;;;;;;;;;5024237;28;20303;-66
2020/12/30 00:44:56;;;;;;;;;;;;;;;;;;5024501;28;19929;-66
2020/12/30 00:47:23;;;;;;;;;;;;;;;;;;5016005;28;19933;-65
2020/12/30 00:49:50;;;;;;;;;;;;;;;;;;5022491;28;20024;-66
2020/12/30 00:52:17;;;;;;;;;;;;;;;;;;5023844;28;19939;-65
2020/12/30 00:54:45;;;;;;;;;;;;;;;;;;5023506;28;19925;-66
2020/12/30 00:57:12;;;;;;;;;;;;;;;;;;5023485;28;19944;-66
2020/12/30 00:59:39;;;;;;;;;;;;;;;;;;5022884;28;19925;-65
2020/12/30 01:02:06;;;;;;;;;;;;;;;;;;5022533;28;19940;-65
2020/12/30 01:04:33;;;;;;;;;;;;;;;;;;5023502;28;19929;-65
2020/12/30 01:07:01;;;;;;;;;;;;;;;;;;5024310;28;19933;-65
2020/12/30 01:09:28;;;;;;;;;;;;;;;;;;5019401;28;20040;-65
2020/12/30 01:11:55;;;;;;;;;;;;;;;;;;5023140;28;19940;-65
2020/12/30 01:14:22;;;;;;;;;;;;;;;;;;5019336;28;19929;-66
2020/12/30 01:16:49;;;;;;;;;;;;;;;;;;5024008;28;19929;-65
2020/12/30 01:19:16;;;;;;;;;;;;;;;;;;5016750;28;19936;-65
2020/12/30 01:21:43;;;;;;;;;;;;;;;;;;5010740;28;19929;-65
2020/12/30 01:24:10;;;;;;;;;;;;;;;;;;5023395;28;19937;-65
2020/12/30 01:26:38;;;;;;;;;;;;;;;;;;5024190;28;20047;-65
2020/12/30 01:29:05;;;;;;;;;;;;;;;;;;5020557;28;19929;-66
2020/12/30 01:31:32;;;;;;;;;;;;;;;;;;5023976;28;19987;-65
2020/12/30 01:33:59;;;;;;;;;;;;;;;;;;5023205;28;19936;-65
2020/12/30 01:36:26;;;;;;;;;;;;;;;;;;5027023;28;19955;-65
2020/12/30 01:38:53;;;;;;;;;;;;;;;;;;5027605;28;19940;-66
2020/12/30 01:41:20;;;;;;;;;;;;;;;;;;5027891;28;20283;-65
2020/12/30 01:43:47;;;;;;;;;;;;;;;;;;5029747;28;20056;-65
2020/12/30 01:46:14;;;;;;;;;;;;;;;;;;5030076;28;19929;-66
2020/12/30 01:48:42;;;;;;;;;;;;;;;;;;5030540;28;19928;-65
2020/12/30 01:51:09;;;;;;;;;;;;;;;;;;5029400;28;19925;-65
2020/12/30 01:53:36;;;;;;;;;;;;;;;;;;5029764;28;19929;-65
2020/12/30 01:56:03;;;;;;;;;;;;;;;;;;5029383;28;20365;-65
2020/12/30 01:58:30;;;;;;;;;;;;;;;;;;5029543;28;20150;-66
2020/12/30 02:00:57;;;;;;;;;;;;;;;;;;5030034;28;20598;-65
2020/12/30 02:03:24;;;;;;;;;;;;;;;;;;5045487;22;19940;-64
2020/12/30 02:05:51;;;;;;;;;;;;;;;;;;5055441;28;19931;-64
2020/12/30 02:08:19;;;;;;;;;;;;;;;;;;5054925;28;20394;-65
2020/12/30 02:10:46;;;;;;;;;;;;;;;;;;5055987;28;19925;-65
2020/12/30 02:13:13;;;;;;;;;;;;;;;;;;5055855;28;19947;-65
2020/12/30 02:15:40;;;;;;;;;;;;;;;;;;5054991;28;19968;-65
2020/12/30 02:18:07;;;;;;;;;;;;;;;;;;5055023;28;19925;-65
2020/12/30 02:20:35;;;;;;;;;;;;;;;;;;5054978;28;20406;-65
2020/12/30 02:23:02;;;;;;;;;;;;;;;;;;5056002;28;19968;-64
2020/12/30 02:25:29;;;;;;;;;;;;;;;;;;5054794;28;20368;-64
2020/12/30 02:27:56;;;;;;;;;;;;;;;;;;5055186;28;20115;-65
2020/12/30 02:30:23;;;;;;;;;;;;;;;;;;5054700;28;20130;-64
2020/12/30 02:32:50;;;;;;;;;;;;;;;;;;5049351;28;19924;-64
2020/12/30 02:35:17;;;;;;;;;;;;;;;;;;5040766;28;19925;-65
2020/12/30 02:37:44;;;;;;;;;;;;;;;;;;5044142;28;19933;-65
2020/12/30 02:40:11;;;;;;;;;;;;;;;;;;5048719;28;19929;-65
2020/12/30 02:42:39;;;;;;;;;;;;;;;;;;5047655;28;20389;-65
2020/12/30 02:45:06;;;;;;;;;;;;;;;;;;5029758;28;19931;-65
2020/12/30 02:47:33;;;;;;;;;;;;;;;;;;5042238;28;20360;-64
2020/12/30 02:50:00;;;;;;;;;;;;;;;;;;5048570;28;19924;-65
2020/12/30 02:52:27;;;;;;;;;;;;;;;;;;5048648;28;19925;-64
2020/12/30 02:54:54;;;;;;;;;;;;;;;;;;5045520;28;20380;-64
2020/12/30 02:57:21;;;;;;;;;;;;;;;;;;5048367;28;19924;-66
2020/12/30 02:59:55;;;;;;;;;;;;;;;;;;5040438;28;20399;-65
2020/12/30 03:02:22;;;;;;;;;;;;;;;;;;5026171;28;20714;-65
2020/12/30 03:04:49;;;;;;;;;;;;;;;;;;5027201;28;19929;-65
2020/12/30 03:07:16;;;;;;;;;;;;;;;;;;5028960;28;20011;-66
2020/12/30 03:09:44;;;;;;;;;;;;;;;;;;5024563;28;20655;-65
2020/12/30 03:12:11;;;;;;;;;;;;;;;;;;5027280;28;19959;-64
2020/12/30 03:14:38;;;;;;;;;;;;;;;;;;5018825;28;20385;-64
2020/12/30 03:17:05;;;;;;;;;;;;;;;;;;5023594;28;19930;-65
2020/12/30 03:19:32;;;;;;;;;;;;;;;;;;5020946;28;20365;-64
2020/12/30 03:21:59;;;;;;;;;;;;;;;;;;5025168;28;19925;-64
2020/12/30 03:24:26;;;;;;;;;;;;;;;;;;5025817;28;19925;-65
2020/12/30 03:26:53;;;;;;;;;;;;;;;;;;5025754;28;19925;-65
2020/12/30 03:29:20;;;;;;;;;;;;;;;;;;5023756;28;19983;-65
2020/12/30 03:31:47;;;;;;;;;;;;;;;;;;5027628;28;20333;-65
2020/12/30 03:34:14;;;;;;;;;;;;;;;;;;5016108;28;19933;-65
2020/12/30 03:36:42;;;;;;;;;;;;;;;;;;5024818;28;19931;-65
2020/12/30 03:39:09;;;;;;;;;;;;;;;;;;5028190;28;19936;-65
2020/12/30 03:41:36;;;;;;;;;;;;;;;;;;5021480;28;20007;-65
2020/12/30 03:44:03;;;;;;;;;;;;;;;;;;5020097;28;19925;-65
2020/12/30 03:46:30;;;;;;;;;;;;;;;;;;5031040;28;20056;-65
2020/12/30 03:48:57;;;;;;;;;;;;;;;;;;5043615;28;20014;-65
2020/12/30 03:51:24;;;;;;;;;;;;;;;;;;5024822;28;19933;-65
2020/12/30 03:53:51;;;;;;;;;;;;;;;;;;5020125;28;19929;-64
2020/12/30 03:56:18;;;;;;;;;;;;;;;;;;5023545;28;20218;-64
2020/12/30 03:58:46;;;;;;;;;;;;;;;;;;5018103;28;19925;-64
2020/12/30 04:01:24;;;;;;;;;;;;;;;;;;5030647;28;20657;-65
2020/12/30 04:03:51;;;;;;;;;;;;;;;;;;5036006;28;20254;-64
2020/12/30 04:06:19;;;;;;;;;;;;;;;;;;5043642;28;19931;-65
2020/12/30 04:08:46;;;;;;;;;;;;;;;;;;5042453;28;19941;-64
2020/12/30 04:11:14;;;;;;;;;;;;;;;;;;5045044;28;19928;-65
2020/12/30 04:13:41;;;;;;;;;;;;;;;;;;5041480;28;20391;-64
2020/12/30 04:16:08;;;;;;;;;;;;;;;;;;5047289;28;19929;-65
2020/12/30 04:18:47;;;;;;;;;;;;;;;;;;993064;28;10022021;-64
2020/12/30 04:21:14;;;;;;;;;;;;;;;;;;4711396;28;10001504;-64
2020/12/30 04:23:41;;;;;;;;;;;;;;;;;;5043404;28;20023;-64
2020/12/30 04:26:09;;;;;;;;;;;;;;;;;;5044295;28;20555;-65
2020/12/30 04:28:36;;;;;;;;;;;;;;;;;;5047232;28;20027;-65
2020/12/30 04:31:03;;;;;;;;;;;;;;;;;;5030957;28;20080;-65
2020/12/30 04:33:30;;;;;;;;;;;;;;;;;;5032309;28;19931;-65
2020/12/30 04:35:57;;;;;;;;;;;;;;;;;;5038946;28;19931;-65
2020/12/30 04:38:24;;;;;;;;;;;;;;;;;;5045876;28;20041;-66
2020/12/30 04:40:51;;;;;;;;;;;;;;;;;;5045849;28;19925;-65
2020/12/30 04:43:18;;;;;;;;;;;;;;;;;;5042106;28;19959;-65
2020/12/30 04:45:45;;;;;;;;;;;;;;;;;;5045049;28;19928;-65
2020/12/30 04:48:12;;;;;;;;;;;;;;;;;;5047034;28;19929;-65
2020/12/30 04:50:39;;;;;;;;;;;;;;;;;;5035724;28;20357;-65
2020/12/30 04:53:07;;;;;;;;;;;;;;;;;;5028979;28;20023;-65
2020/12/30 04:55:34;;;;;;;;;;;;;;;;;;5039004;28;19932;-65
2020/12/30 04:58:01;;;;;;;;;;;;;;;;;;5047353;28;19928;-66
2020/12/30 05:00:28;;;;;;;;;;;;;;;;;;5041340;28;20292;-65
2020/12/30 05:02:55;;;;;;;;;;;;;;;;;;5045724;28;20027;-65
2020/12/30 05:05:22;;;;;;;;;;;;;;;;;;5030103;28;19925;-64
2020/12/30 05:07:50;;;;;;;;;;;;;;;;;;5049458;28;20225;-64
2020/12/30 05:10:17;;;;;;;;;;;;;;;;;;5048998;28;19929;-65
2020/12/30 05:12:44;;;;;;;;;;;;;;;;;;5050149;28;19928;-65
2020/12/30 05:15:11;;;;;;;;;;;;;;;;;;5047558;28;19929;-65
2020/12/30 05:17:38;;;;;;;;;;;;;;;;;;5050326;28;19939;-64
2020/12/30 05:20:05;;;;;;;;;;;;;;;;;;5049713;28;19935;-64
2020/12/30 05:22:33;;;;;;;;;;;;;;;;;;5050412;28;19925;-64
2020/12/30 05:25:00;;;;;;;;;;;;;;;;;;5047057;28;20016;-65
2020/12/30 05:27:27;;;;;;;;;;;;;;;;;;5049721;28;19929;-64
2020/12/30 05:29:54;;;;;;;;;;;;;;;;;;5049508;28;20372;-66
2020/12/30 05:32:21;;;;;;;;;;;;;;;;;;5049520;28;19928;-64
2020/12/30 05:34:48;;;;;;;;;;;;;;;;;;5044463;28;19929;-65
2020/12/30 05:37:15;;;;;;;;;;;;;;;;;;5037837;28;20304;-66
2020/12/30 05:39:42;;;;;;;;;;;;;;;;;;5049065;28;19933;-64
2020/12/30 05:42:09;;;;;;;;;;;;;;;;;;5050070;28;20396;-64
2020/12/30 05:44:36;;;;;;;;;;;;;;;;;;5046079;28;19929;-65
2020/12/30 05:47:04;;;;;;;;;;;;;;;;;;5045786;28;19971;-64
2020/12/30 05:49:31;;;;;;;;;;;;;;;;;;5040516;28;20372;-64
2020/12/30 05:52:06;;;;;;;;;;;;;;;;;;5050062;28;20450;-65
2020/12/30 05:54:33;;;;;;;;;;;;;;;;;;5049457;28;19925;-65
2020/12/30 05:57:00;;;;;;;;;;;;;;;;;;5055783;28;19925;-63
2020/12/30 05:59:27;;;;;;;;;;;;;;;;;;5049190;28;19986;-62
2020/12/30 06:01:54;;;;;;;;;;;;;;;;;;5049577;28;19929;-62
2020/12/30 06:04:21;;;;;;;;;;;;;;;;;;5054311;28;20390;-63
2020/12/30 06:06:48;;;;;;;;;;;;;;;;;;5050544;28;20423;-63
2020/12/30 06:09:15;;;;;;;;;;;;;;;;;;5045172;28;20268;-64
2020/12/30 06:11:42;;;;;;;;;;;;;;;;;;5030225;28;19929;-65
2020/12/30 06:14:09;;;;;;;;;;;;;;;;;;5022550;28;20008;-64
2020/12/30 06:16:36;;;;;;;;;;;;;;;;;;5023679;28;19932;-64
2020/12/30 06:19:04;;;;;;;;;;;;;;;;;;5029212;28;20364;-65
2020/12/30 06:21:31;;;;;;;;;;;;;;;;;;5048556;28;19935;-66
2020/12/30 06:23:58;;;;;;;;;;;;;;;;;;5047665;28;20295;-64
2020/12/30 06:26:25;;;;;;;;;;;;;;;;;;5047080;28;19939;-65
2020/12/30 06:28:52;;;;;;;;;;;;;;;;;;5049162;28;19972;-64
2020/12/30 06:31:19;;;;;;;;;;;;;;;;;;5047210;28;19935;-65
2020/12/30 06:33:46;;;;;;;;;;;;;;;;;;5048564;28;20299;-65
2020/12/30 06:36:13;;;;;;;;;;;;;;;;;;5043261;28;19929;-65
2020/12/30 06:38:40;;;;;;;;;;;;;;;;;;5046584;28;20299;-64
2020/12/30 06:41:08;;;;;;;;;;;;;;;;;;5043150;28;19925;-64
2020/12/30 06:43:35;;;;;;;;;;;;;;;;;;5046451;28;19955;-65
2020/12/30 06:46:02;;;;;;;;;;;;;;;;;;5047131;28;19976;-65
2020/12/30 06:48:30;;;;;;;;;;;;;;;;;;5046725;28;19925;-65
2020/12/30 06:50:57;;;;;;;;;;;;;;;;;;5039350;28;20011;-65
2020/12/30 06:53:24;;;;;;;;;;;;;;;;;;5047652;28;19935;-64
2020/12/30 06:55:51;;;;;;;;;;;;;;;;;;5037875;28;20327;-65
2020/12/30 06:58:18;;;;;;;;;;;;;;;;;;5048246;28;20008;-66
2020/12/30 07:00:45;;;;;;;;;;;;;;;;;;5046224;28;20299;-65
2020/12/30 07:03:12;;;;;;;;;;;;;;;;;;5047337;28;19941;-64
2020/12/30 07:05:39;;;;;;;;;;;;;;;;;;5035513;28;19932;-65
2020/12/30 07:08:06;;;;;;;;;;;;;;;;;;5036892;28;19936;-65
2020/12/30 07:10:34;;;;;;;;;;;;;;;;;;5041914;28;20341;-64
2020/12/30 07:13:01;;;;;;;;;;;;;;;;;;5037080;28;20110;-66
2020/12/30 07:15:28;;;;;;;;;;;;;;;;;;5039442;28;20288;-65
2020/12/30 07:17:55;;;;;;;;;;;;;;;;;;5042595;28;19936;-64
2020/12/30 07:20:22;;;;;;;;;;;;;;;;;;5026434;28;20364;-65
2020/12/30 07:22:49;;;;;;;;;;;;;;;;;;5023985;28;19935;-64
2020/12/30 07:25:16;;;;;;;;;;;;;;;;;;5022360;28;19925;-65
2020/12/30 07:27:43;;;;;;;;;;;;;;;;;;5026206;28;19951;-65
2020/12/30 07:30:10;;;;;;;;;;;;;;;;;;5024824;28;19936;-65
2020/12/30 07:32:41;;;;;;;;;;;;;;;;;;5023836;28;20359;-65
2020/12/30 07:35:08;;;;;;;;;;;;;;;;;;5021071;28;19929;-65
2020/12/30 07:37:35;;;;;;;;;;;;;;;;;;5024252;28;19929;-64
2020/12/30 07:40:02;;;;;;;;;;;;;;;;;;5023912;28;20244;-65
2020/12/30 07:42:29;;;;;;;;;;;;;;;;;;5024061;28;20538;-65
2020/12/30 07:44:56;;;;;;;;;;;;;;;;;;5024066;28;19991;-65
2020/12/30 07:47:23;;;;;;;;;;;;;;;;;;5025338;28;19929;-64
2020/12/30 07:49:50;;;;;;;;;;;;;;;;;;5012600;28;20327;-64
2020/12/30 07:52:18;;;;;;;;;;;;;;;;;;5038033;28;19939;-65
2020/12/30 07:54:45;;;;;;;;;;;;;;;;;;5043974;28;19939;-64
2020/12/30 07:57:12;;;;;;;;;;;;;;;;;;5036809;28;19968;-65
2020/12/30 07:59:39;;;;;;;;;;;;;;;;;;5037920;28;20419;-65
2020/12/30 08:02:06;;;;;;;;;;;;;;;;;;5037959;28;19928;-65
2020/12/30 08:04:33;;;;;;;;;;;;;;;;;;5033536;28;19928;-64
2020/12/30 08:07:00;;;;;;;;;;;;;;;;;;5043184;28;20272;-65
2020/12/30 08:09:28;;;;;;;;;;;;;;;;;;5041514;28;20244;-65
2020/12/30 08:11:55;;;;;;;;;;;;;;;;;;5037514;28;19980;-65
2020/12/30 08:14:22;;;;;;;;;;;;;;;;;;5032649;28;20008;-65
2020/12/30 08:16:49;;;;;;;;;;;;;;;;;;5034856;28;19935;-64
2020/12/30 08:19:19;;;;;;;;;;;;;;;;;;5029512;28;20431;-65
2020/12/30 08:21:51;;;;;;;;;;;;;;;;;;5042311;28;20319;-64
2020/12/30 08:24:18;;;;;;;;;;;;;;;;;;5044382;28;20412;-64
2020/12/30 08:26:45;;;;;;;;;;;;;;;;;;5044813;28;20414;-64
2020/12/30 08:29:12;;;;;;;;;;;;;;;;;;5043066;28;20012;-64
2020/12/30 08:31:47;;;;;;;;;;;;;;;;;;5044028;28;20020;-65
2020/12/30 08:34:14;;;;;;;;;;;;;;;;;;5044222;28;19929;-65
2020/12/30 08:36:41;;;;;;;;;;;;;;;;;;5041977;28;19928;-64
2020/12/30 08:39:08;;;;;;;;;;;;;;;;;;5043469;28;19935;-64
2020/12/30 08:41:35;;;;;;;;;;;;;;;;;;5042094;28;20323;-64
2020/12/30 08:44:02;;;;;;;;;;;;;;;;;;5044228;28;19925;-65
2020/12/30 08:46:30;;;;;;;;;;;;;;;;;;5040589;28;20396;-64
2020/12/30 08:48:57;;;;;;;;;;;;;;;;;;5041774;28;20016;-64
2020/12/30 08:51:25;;;;;;;;;;;;;;;;;;5023652;28;20032;-65
2020/12/30 08:53:52;;;;;;;;;;;;;;;;;;5023033;28;19978;-65
2020/12/30 08:56:19;;;;;;;;;;;;;;;;;;5022840;28;19940;-65
2020/12/30 08:58:46;;;;;;;;;;;;;;;;;;5017747;28;19929;-65
2020/12/30 09:01:14;;;;;;;;;;;;;;;;;;5025221;28;19936;-66
2020/12/30 09:03:41;;;;;;;;;;;;;;;;;;5027608;28;20005;-65
2020/12/30 09:06:11;;;;;;;;;;;;;;;;;;5023584;28;19932;-65
2020/12/30 09:08:39;;;;;;;;;;;;;;;;;;5027317;28;19976;-65
2020/12/30 09:11:06;;;;;;;;;;;;;;;;;;5026673;28;19964;-65
2020/12/30 09:13:33;;;;;;;;;;;;;;;;;;5027475;28;20028;-65
2020/12/30 09:16:00;;;;;;;;;;;;;;;;;;5025828;28;20412;-64
2020/12/30 09:18:27;;;;;;;;;;;;;;;;;;5026342;28;20131;-65
2020/12/30 09:20:54;;;;;;;;;;;;;;;;;;5025683;28;20019;-65
2020/12/30 09:23:21;;;;;;;;;;;;;;;;;;5017320;28;19964;-65
2020/12/30 09:25:48;;;;;;;;;;;;;;;;;;5027150;28;19952;-64
2020/12/30 09:28:16;;;;;;;;;;;;;;;;;;5026897;28;19933;-64
2020/12/30 09:30:43;;;;;;;;;;;;;;;;;;5026629;28;19948;-64
2020/12/30 09:33:10;;;;;;;;;;;;;;;;;;5027369;28;19932;-64
2020/12/30 09:35:37;;;;;;;;;;;;;;;;;;5026489;28;19935;-65
2020/12/30 09:38:04;;;;;;;;;;;;;;;;;;5023985;28;19952;-64
2020/12/30 09:40:31;;;;;;;;;;;;;;;;;;5022036;28;19932;-64
2020/12/30 09:42:58;;;;;;;;;;;;;;;;;;5027816;28;20009;-64
2020/12/30 09:45:25;;;;;;;;;;;;;;;;;;5011393;28;20356;-64
2020/12/30 09:47:53;;;;;;;;;;;;;;;;;;5025515;28;19989;-64
2020/12/30 09:50:20;;;;;;;;;;;;;;;;;;5015031;28;20035;-65
2020/12/30 09:52:47;;;;;;;;;;;;;;;;;;5026209;28;20024;-64
2020/12/30 09:55:14;;;;;;;;;;;;;;;;;;5029963;28;19929;-65
2020/12/30 09:57:42;;;;;;;;;;;;;;;;;;5029935;28;19929;-64
2020/12/30 10:00:09;;;;;;;;;;;;;;;;;;5029624;28;19929;-64
2020/12/30 10:02:36;;;;;;;;;;;;;;;;;;5028139;28;19926;-64
2020/12/30 10:05:03;;;;;;;;;;;;;;;;;;5025801;28;20335;-65
2020/12/30 10:07:35;;;;;;;;;;;;;;;;;;5022928;28;20230;-65
2020/12/30 10:10:02;;;;;;;;;;;;;;;;;;5028861;28;19964;-65
2020/12/30 10:12:30;;;;;;;;;;;;;;;;;;5028349;28;19987;-64
2020/12/30 10:14:57;;;;;;;;;;;;;;;;;;5029652;28;19925;-66
2020/12/30 10:17:24;;;;;;;;;;;;;;;;;;5028538;28;20245;-65
2020/12/30 10:19:52;;;;;;;;;;;;;;;;;;5028919;28;19935;-64
2020/12/30 10:22:19;;;;;;;;;;;;;;;;;;5027239;28;20034;-64
2020/12/30 10:24:48;;;;;;;;;;;;;;;;;;5019507;28;20247;-65
2020/12/30 10:27:15;;;;;;;;;;;;;;;;;;5016850;28;20023;-65
2020/12/30 10:29:42;;;;;;;;;;;;;;;;;;5013789;28;19929;-64
2020/12/30 10:32:09;;;;;;;;;;;;;;;;;;5028976;28;19925;-65
2020/12/30 10:34:36;;;;;;;;;;;;;;;;;;5031396;28;20030;-64
2020/12/30 10:37:03;;;;;;;;;;;;;;;;;;5028463;28;19925;-65
2020/12/30 10:39:30;;;;;;;;;;;;;;;;;;5027797;28;19925;-65
2020/12/30 10:41:58;;;;;;;;;;;;;;;;;;5028146;28;19935;-65
2020/12/30 10:44:25;;;;;;;;;;;;;;;;;;5030577;28;19929;-65
2020/12/30 10:46:52;;;;;;;;;;;;;;;;;;5039193;28;20304;-65
2020/12/30 10:49:19;;;;;;;;;;;;;;;;;;5036842;28;19933;-65
2020/12/30 10:51:47;;;;;;;;;;;;;;;;;;5035642;28;19935;-64
2020/12/30 10:54:16;;;;;;;;;;;;;;;;;;5031484;28;20467;-65
2020/12/30 10:56:43;;;;;;;;;;;;;;;;;;5030154;28;19931;-64
2020/12/30 10:59:10;;;;;;;;;;;;;;;;;;5040973;28;20257;-64
2020/12/30 11:01:37;;;;;;;;;;;;;;;;;;5021240;28;20012;-64
2020/12/30 11:04:04;;;;;;;;;;;;;;;;;;5014221;28;19968;-66
2020/12/30 11:06:31;;;;;;;;;;;;;;;;;;5028799;28;19971;-65
2020/12/30 11:08:58;;;;;;;;;;;;;;;;;;5030632;28;20011;-65
2020/12/30 11:11:26;;;;;;;;;;;;;;;;;;5039591;28;20280;-65
2020/12/30 11:13:53;;;;;;;;;;;;;;;;;;5033424;28;20016;-65
2020/12/30 11:16:20;;;;;;;;;;;;;;;;;;5048389;28;20295;-64
2020/12/30 11:18:47;;;;;;;;;;;;;;;;;;5040820;28;19931;-66
2020/12/30 11:21:14;;;;;;;;;;;;;;;;;;5027875;28;20012;-65
2020/12/30 11:23:41;;;;;;;;;;;;;;;;;;5028318;28;19971;-65
2020/12/30 11:26:08;;;;;;;;;;;;;;;;;;5044949;28;19928;-67
2020/12/30 11:28:35;;;;;;;;;;;;;;;;;;5043692;28;20051;-66
2020/12/30 11:31:03;;;;;;;;;;;;;;;;;;5047046;28;19975;-62
2020/12/30 11:33:31;;;;;;;;;;;;;;;;;;5043912;28;20266;-65
2020/12/30 11:35:58;;;;;;;;;;;;;;;;;;5017617;28;20711;-66
2020/12/30 11:38:25;;;;;;;;;;;;;;;;;;5046014;28;19928;-67
2020/12/30 11:40:52;;;;;;;;;;;;;;;;;;5025991;28;19931;-65
2020/12/30 11:43:22;;;;;;;;;;;;;;;;;;5023915;28;19929;-71
2020/12/30 11:45:49;;;;;;;;;;;;;;;;;;5025418;28;20182;-70
2020/12/30 11:48:16;;;;;;;;;;;;;;;;;;5025434;28;19951;-68
2020/12/30 11:50:44;;;;;;;;;;;;;;;;;;5027301;28;19943;-68
2020/12/30 11:53:11;;;;;;;;;;;;;;;;;;5045733;28;20517;-68
2020/12/30 11:55:38;;;;;;;;;;;;;;;;;;5043929;28;20418;-64
2020/12/30 11:58:05;;;;;;;;;;;;;;;;;;5045075;28;19925;-66
2020/12/30 12:00:32;;;;;;;;;;;;;;;;;;5044330;28;20576;-66
2020/12/30 12:03:00;;;;;;;;;;;;;;;;;;5041676;28;20427;-66
2020/12/30 12:05:27;;;;;;;;;;;;;;;;;;5045102;28;19948;-65
2020/12/30 12:07:55;;;;;;;;;;;;;;;;;;5044685;28;20027;-63
2020/12/30 12:10:22;;;;;;;;;;;;;;;;;;5046053;28;19935;-66
2020/12/30 12:12:49;;;;;;;;;;;;;;;;;;5038371;28;19929;-64
2020/12/30 12:15:16;;;;;;;;;;;;;;;;;;5040872;28;19974;-68
2020/12/30 12:17:43;;;;;;;;;;;;;;;;;;5044588;28;19935;-68
2020/12/30 12:20:10;;;;;;;;;;;;;;;;;;5044484;28;19925;-65
2020/12/30 12:22:38;;;;;;;;;;;;;;;;;;5044235;28;19972;-64
2020/12/30 12:25:05;;;;;;;;;;;;;;;;;;5041327;28;20359;-62
2020/12/30 12:27:32;;;;;;;;;;;;;;;;;;5040001;28;20032;-62
2020/12/30 12:29:59;;;;;;;;;;;;;;;;;;5043821;28;20256;-64
2020/12/30 12:32:27;;;;;;;;;;;;;;;;;;5041189;28;19939;-63
2020/12/30 12:34:54;;;;;;;;;;;;;;;;;;5044473;28;19929;-62
2020/12/30 12:37:21;;;;;;;;;;;;;;;;;;5043149;28;20363;-61
2020/12/30 12:39:48;;;;;;;;;;;;;;;;;;5030808;28;20363;-63
2020/12/30 12:42:15;;;;;;;;;;;;;;;;;;5011412;28;20008;-62
2020/12/30 12:44:42;;;;;;;;;;;;;;;;;;5016800;28;20232;-62
2020/12/30 12:47:09;;;;;;;;;;;;;;;;;;5007110;28;19930;-62
2020/12/30 12:49:36;;;;;;;;;;;;;;;;;;5023500;28;19976;-62
2020/12/30 12:52:03;;;;;;;;;;;;;;;;;;5023565;28;19936;-63
2020/12/30 12:54:31;;;;;;;;;;;;;;;;;;5022286;28;19929;-62
2020/12/30 12:56:58;;;;;;;;;;;;;;;;;;5019209;28;20376;-64
2020/12/30 12:59:25;;;;;;;;;;;;;;;;;;5020602;28;20572;-64
2020/12/30 13:01:52;;;;;;;;;;;;;;;;;;5021810;28;20058;-64
2020/12/30 13:04:19;;;;;;;;;;;;;;;;;;5012890;28;19929;-63
2020/12/30 13:06:47;;;;;;;;;;;;;;;;;;5012858;28;20031;-63
2020/12/30 13:09:14;;;;;;;;;;;;;;;;;;5016612;28;20392;-64
2020/12/30 13:11:42;;;;;;;;;;;;;;;;;;5035962;28;19968;-62
2020/12/30 13:14:09;;;;;;;;;;;;;;;;;;5024967;28;22023;-62
2020/12/30 13:16:36;;;;;;;;;;;;;;;;;;5035877;28;19933;-62
2020/12/30 13:19:04;;;;;;;;;;;;;;;;;;5028869;28;19925;-63
2020/12/30 13:21:32;;;;;;;;;;;;;;;;;;5027487;28;20664;-62
2020/12/30 13:23:59;;;;;;;;;;;;;;;;;;5028604;28;19929;-62
2020/12/30 13:26:27;;;;;;;;;;;;;;;;;;5031144;28;19967;-62
2020/12/30 13:28:54;;;;;;;;;;;;;;;;;;5027132;28;19929;-63
2020/12/30 13:31:21;;;;;;;;;;;;;;;;;;5028078;28;19929;-63
2020/12/30 13:33:48;;;;;;;;;;;;;;;;;;5047571;28;20047;-62
2020/12/30 13:36:15;;;;;;;;;;;;;;;;;;5031594;28;19928;-64
2020/12/30 13:38:42;;;;;;;;;;;;;;;;;;5028011;28;20011;-62
2020/12/30 13:41:09;;;;;;;;;;;;;;;;;;5029219;28;19963;-62
2020/12/30 13:43:37;;;;;;;;;;;;;;;;;;5034119;28;20236;-61
2020/12/30 13:46:04;;;;;;;;;;;;;;;;;;5028497;28;19929;-62
2020/12/30 13:48:31;;;;;;;;;;;;;;;;;;5023711;28;19933;-62
2020/12/30 13:50:58;;;;;;;;;;;;;;;;;;5024742;28;20340;-62
2020/12/30 13:53:25;;;;;;;;;;;;;;;;;;5026557;28;20028;-63
2020/12/30 13:55:52;;;;;;;;;;;;;;;;;;5026222;28;20248;-63
2020/12/30 13:58:19;;;;;;;;;;;;;;;;;;5024438;28;20410;-63
2020/12/30 14:00:46;;;;;;;;;;;;;;;;;;5023915;28;19940;-62
2020/12/30 14:03:13;;;;;;;;;;;;;;;;;;5029530;28;20400;-65
2020/12/30 14:05:41;;;;;;;;;;;;;;;;;;5017832;28;20234;-63
2020/12/30 14:08:08;;;;;;;;;;;;;;;;;;5024463;28;20002;-63
2020/12/30 14:10:36;;;;;;;;;;;;;;;;;;5025742;28;19931;-62
2020/12/30 14:13:03;;;;;;;;;;;;;;;;;;5019528;28;20372;-62
2020/12/30 14:15:30;;;;;;;;;;;;;;;;;;5026410;28;19929;-62
2020/12/30 14:17:58;;;;;;;;;;;;;;;;;;5026661;28;20274;-62
2020/12/30 14:20:25;;;;;;;;;;;;;;;;;;5025643;28;20019;-62
2020/12/30 14:22:52;;;;;;;;;;;;;;;;;;5016116;28;19960;-63
2020/12/30 14:25:19;;;;;;;;;;;;;;;;;;5018904;28;19933;-62
2020/12/30 14:27:46;;;;;;;;;;;;;;;;;;5025748;28;19933;-61
2020/12/30 14:30:13;;;;;;;;;;;;;;;;;;5023726;28;20389;-62
2020/12/30 14:32:40;;;;;;;;;;;;;;;;;;5025595;28;19925;-62
2020/12/30 14:35:07;;;;;;;;;;;;;;;;;;5025054;28;20028;-62
2020/12/30 14:37:34;;;;;;;;;;;;;;;;;;5024694;28;19929;-61
2020/12/30 14:40:01;;;;;;;;;;;;;;;;;;5025443;28;19929;-64
2020/12/30 14:42:29;;;;;;;;;;;;;;;;;;5024097;28;19929;-64
2020/12/30 14:44:56;;;;;;;;;;;;;;;;;;5023811;28;19933;-64
2020/12/30 14:47:23;;;;;;;;;;;;;;;;;;5019554;28;20294;-61
2020/12/30 14:49:50;;;;;;;;;;;;;;;;;;5022954;28;20031;-62
2020/12/30 14:52:17;;;;;;;;;;;;;;;;;;5024251;28;20581;-61
2020/12/30 14:54:45;;;;;;;;;;;;;;;;;;5024442;28;19929;-64
2020/12/30 14:57:12;;;;;;;;;;;;;;;;;;5023743;28;19929;-63
2020/12/30 14:59:42;;;;;;;;;;;;;;;;;;5019122;28;19940;-62
2020/12/30 15:02:09;;;;;;;;;;;;;;;;;;5023538;28;19931;-61
2020/12/30 15:04:36;;;;;;;;;;;;;;;;;;5025766;28;19933;-62
2020/12/30 15:07:03;;;;;;;;;;;;;;;;;;5025149;28;19929;-62
2020/12/30 15:09:30;;;;;;;;;;;;;;;;;;5024842;28;20292;-63
2020/12/30 15:11:57;;;;;;;;;;;;;;;;;;5023613;28;19976;-61
2020/12/30 15:14:24;;;;;;;;;;;;;;;;;;5026139;28;19929;-62
2020/12/30 15:16:52;;;;;;;;;;;;;;;;;;5025541;28;19925;-64
2020/12/30 15:19:20;;;;;;;;;;;;;;;;;;5022185;28;20410;-62
2020/12/30 15:21:47;;;;;;;;;;;;;;;;;;5012807;28;20015;-62
2020/12/30 15:24:14;;;;;;;;;;;;;;;;;;5025604;28;20420;-62
2020/12/30 15:26:41;;;;;;;;;;;;;;;;;;5025516;28;19937;-62
2020/12/30 15:29:08;;;;;;;;;;;;;;;;;;5023407;28;20027;-62
2020/12/30 15:31:35;;;;;;;;;;;;;;;;;;5022160;28;19959;-62
2020/12/30 15:34:02;;;;;;;;;;;;;;;;;;5008060;28;19925;-62
2020/12/30 15:36:30;;;;;;;;;;;;;;;;;;5009916;28;19925;-63
2020/12/30 15:38:57;;;;;;;;;;;;;;;;;;5024621;28;19929;-63
2020/12/30 15:41:24;;;;;;;;;;;;;;;;;;5032342;28;20445;-62
2020/12/30 15:43:53;;;;;;;;;;;;;;;;;;5025778;28;19929;-62
2020/12/30 15:46:21;;;;;;;;;;;;;;;;;;5023740;28;19936;-62
2020/12/30 15:48:48;;;;;;;;;;;;;;;;;;5022275;28;19931;-62
2020/12/30 15:51:15;;;;;;;;;;;;;;;;;;5022735;28;21838;-62
2020/12/30 15:53:43;;;;;;;;;;;;;;;;;;5023748;28;20028;-61
2020/12/30 15:56:10;;;;;;;;;;;;;;;;;;5023672;28;20422;-64
2020/12/30 15:58:37;;;;;;;;;;;;;;;;;;5024703;28;19935;-62
2020/12/30 16:01:04;;;;;;;;;;;;;;;;;;5037374;28;19964;-63
2020/12/30 16:03:31;;;;;;;;;;;;;;;;;;5047232;28;19928;-63
2020/12/30 16:05:58;;;;;;;;;;;;;;;;;;5049950;28;19929;-62
2020/12/30 16:08:26;;;;;;;;;;;;;;;;;;5025277;28;19929;-63
2020/12/30 16:10:53;;;;;;;;;;;;;;;;;;5036337;28;20027;-62
2020/12/30 16:13:21;;;;;;;;;;;;;;;;;;5042785;28;20035;-62
2020/12/30 16:15:48;;;;;;;;;;;;;;;;;;5032597;28;20422;-62
2020/12/30 16:18:15;;;;;;;;;;;;;;;;;;5044406;28;19931;-65
2020/12/30 16:20:42;;;;;;;;;;;;;;;;;;5043918;28;20360;-63
2020/12/30 16:23:09;;;;;;;;;;;;;;;;;;5030374;28;20020;-63
2020/12/30 16:25:36;;;;;;;;;;;;;;;;;;5036190;28;20031;-62
2020/12/30 16:28:03;;;;;;;;;;;;;;;;;;5038050;28;19929;-63
2020/12/30 16:30:31;;;;;;;;;;;;;;;;;;5029834;28;19933;-62
2020/12/30 16:32:58;;;;;;;;;;;;;;;;;;5011725;28;20028;-63
2020/12/30 16:35:25;;;;;;;;;;;;;;;;;;5017793;28;20278;-63
2020/12/30 16:37:53;;;;;;;;;;;;;;;;;;5023646;28;19929;-63
2020/12/30 16:40:20;;;;;;;;;;;;;;;;;;5046662;28;19932;-64
2020/12/30 16:42:47;;;;;;;;;;;;;;;;;;5039391;28;19965;-63
2020/12/30 16:45:14;;;;;;;;;;;;;;;;;;5025240;28;20270;-69